Latest Weather Observations for Territory Grape Farm

IDD60801

Issued at 7:31 am CST Friday 19 December 2014 (issued every 30 minutes, with the page automatically refreshed every 10 minutes)

About weather observations | Map of weather stations | Latest weather observations for NT | Other Formats
Station Details ID: 015643 Name: TERRITORY GRAPE FARM Lat: -22.45 Lon: 133.64 Height: 565.6 m
Data from the previous 72 hours. | See also: Recent months at Territory Grape Farm
Date/Time
CST
Temp
°C
App
Temp
°C
Dew
Point
Rel
Hum
%
Delta-T
°C
Wind Press
QNH
hPa
Press
MSL
hPa
Rain
since 9 am
mm
Dir
 
Spd
km/h
Gust
km/h
Spd
kts
Gust
kts
19/07:30am 23.9 25.7 20.4 81 2.3 ENE 11 15 6 8 1017.9 1013.7 0.2
19/07:00am 22.9 24.2 20.2 85 1.8 ENE 13 17 7 9 1017.4 1013.2 0.2
19/06:30am 22.4 25.4 20.9 91 1.0 E 6 7 3 4 1017.0 1012.7 0.2
19/06:00am 21.5 24.2 20.7 95 0.5 ENE 7 11 4 6 1016.5 1012.2 0.2
19/05:30am 21.5 24.4 20.7 95 0.5 ENE 6 7 3 4 1016.0 1011.8 0.2
19/05:00am 21.7 24.4 20.7 94 0.7 NE 7 9 4 5 1015.5 1011.3 0.2
19/04:30am 21.9 25.3 20.9 94 0.7 NE 4 6 2 3 1015.2 1010.9 0.2
19/04:00am 22.1 25.1 20.9 93 0.8 NE 6 7 3 4 1014.7 1010.4 0.2
19/03:30am 22.5 25.6 21.1 92 0.9 NE 6 6 3 3 1014.7 1010.4 0.2
19/03:00am 22.8 26.0 21.3 91 1.0 NE 6 7 3 4 1014.5 1010.2 0.2
19/02:30am 23.2 25.7 21.1 88 1.4 ENE 9 13 5 7 1014.1 1009.9 0.2
19/02:00am 23.6 25.9 21.3 87 1.5 ENE 11 15 6 8 1014.2 1010.0 0.2
19/01:30am 23.9 27.1 21.6 87 1.6 E 7 9 4 5 1014.2 1010.0 0.2
19/01:00am 24.2 27.0 21.5 85 1.8 ESE 9 11 5 6 1014.0 1009.8 0.2
19/12:30am 24.4 27.6 21.7 85 1.8 E 7 9 4 5 1014.2 1010.0 0.2
19/12:00am 24.6 28.1 21.9 85 1.8 ESE 6 7 3 4 1014.6 1010.3 0.2
 
Date/Time
CST
Temp
°C
App
Temp
°C
Dew
Point
Rel
Hum
%
Delta-T
°C
Wind Press
QNH
hPa
Press
MSL
hPa
Rain
since 9 am
mm
Dir
 
Spd
km/h
Gust
km/h
Spd
kts
Gust
kts
18/11:30pm 24.9 28.6 22.2 85 1.8 ESE 6 6 3 3 1014.6 1010.3 0.2
18/11:00pm 25.3 28.7 22.0 82 2.2 ESE 7 7 4 4 1014.7 1010.4 0.2
18/10:30pm 25.6 29.6 22.1 81 2.4 ESE 4 6 2 3 1014.6 1010.3 0.2
18/10:00pm 25.9 29.3 21.6 77 2.9 ESE 6 6 3 3 1014.1 1009.9 0.2
18/09:30pm 26.4 29.7 21.4 74 3.4 E 6 7 3 4 1013.7 1009.4 0.2
18/09:00pm 26.9 30.1 21.2 71 3.9 E 6 7 3 4 1013.3 1009.0 0.2
18/08:30pm 27.7 30.5 20.8 66 4.7 E 7 9 4 5 1013.2 1008.9 0.2
18/08:00pm 28.2 30.9 20.7 63 5.1 ENE 7 9 4 5 1013.1 1008.8 0.2
18/07:30pm 28.7 30.8 20.2 60 5.7 E 9 11 5 6 1012.8 1008.5 0.2
18/07:00pm 29.4 31.8 20.0 57 6.3 ESE 7 11 4 6 1012.6 1008.3 0.2
18/06:30pm 29.5 31.3 19.5 55 6.7 SE 9 17 5 9 1012.2 1008.0 0.2
18/06:00pm 30.2 32.5 19.9 54 6.9 ESE 7 13 4 7 1011.9 1007.6 0.2
18/05:30pm 30.2 32.0 19.6 53 7.1 E 9 15 5 8 1011.8 1007.5 0.2
18/05:00pm 29.4 31.0 20.0 57 6.3 ESE 11 17 6 9 1011.9 1007.6 0.2
18/04:30pm 29.4 31.9 20.3 58 6.1 ENE 7 17 4 9 1012.3 1008.1 0.2
18/04:00pm 29.3 31.5 20.5 59 5.9 NE 9 13 5 7 1012.7 1008.4 0.2
18/03:30pm 29.1 31.9 20.8 61 5.6 E 7 15 4 8 1012.9 1008.6 0.0
18/03:00pm 28.6 30.7 20.9 63 5.2 ENE 11 19 6 10 1013.2 1008.9 0.0
18/02:30pm 27.9 29.4 20.5 64 5.0 ENE 13 20 7 11 1013.6 1009.3 0.0
18/02:00pm 27.7 29.3 20.8 66 4.7 ENE 13 20 7 11 1014.0 1009.8 0.0
18/01:30pm 26.6 27.7 20.4 69 4.1 NE 15 20 8 11 1014.4 1010.1 0.0
18/01:00pm 26.1 27.7 20.7 72 3.6 NE 13 20 7 11 1014.5 1010.2 0.0
18/12:30pm 25.7 26.0 20.5 73 3.5 NE 19 24 10 13 1014.4 1010.1 0.0
18/12:00pm 25.1 25.5 20.6 76 3.0 NE 19 26 10 14 1014.5 1010.2 0.0
18/11:30am 24.6 25.2 20.3 77 2.9 NE 17 24 9 13 1014.9 1010.6 0.0
18/11:00am 24.2 24.7 20.1 78 2.7 E 17 22 9 12 1015.5 1011.3 0.0
18/10:30am 23.6 23.8 20.1 81 2.3 E 19 24 10 13 1015.4 1011.1 0.0
18/10:00am 22.8 22.9 20.0 84 1.8 E 19 26 10 14 1015.7 1011.5 0.0
18/09:30am 22.4 22.2 19.8 85 1.7 ESE 20 28 11 15 1015.7 1011.5 0.0
18/09:00am 22.2 21.4 20.8 92 0.9 ESE 26 35 14 19 1015.3 1011.0 5.2
18/08:30am 21.1 19.3 20.3 95 0.5 ESE 30 39 16 21 1014.8 1010.5 5.2
18/08:00am 20.6 18.6 19.9 96 0.5 ESE 30 43 16 23 1014.7 1010.4 5.2
18/07:30am 21.2 19.5 19.8 92 0.9 SE 28 39 15 21 1014.7 1010.4 4.0
18/07:00am 22.3 22.2 20.8 91 1.0 SSE 22 30 12 16 1014.2 1010.0 3.4
18/06:30am 23.3 25.0 21.7 91 1.1 SSE 15 22 8 12 1013.2 1008.9 3.4
18/06:00am 23.6 24.6 21.1 86 1.7 SSW 17 24 9 13 1012.3 1008.1 3.4
18/05:30am 23.9 26.6 22.2 90 1.2 S 11 17 6 9 1011.8 1007.5 3.4
18/05:00am 23.9 28.2 22.0 89 1.3 WSW 2 6 1 3 1011.5 1007.2 3.4
18/04:30am 23.7 26.7 22.0 90 1.2 E 9 13 5 7 1010.7 1006.4 3.2
18/04:00am 23.7 26.7 22.0 90 1.2 E 9 13 5 7 1010.0 1005.7 3.2
18/03:30am 23.5 27.6 21.6 89 1.3 NE 2 6 1 3 1010.4 1006.1 3.2
18/03:00am 22.9 25.0 21.0 89 1.3 NNW 11 17 6 9 1010.0 1005.7 3.2
18/02:30am 25.9 28.2 20.7 73 3.5 NNE 9 20 5 11 1009.8 1005.5 0.4
18/02:00am 25.5 27.7 21.8 80 2.5 WSW 13 17 7 9 1009.2 1004.9 0.2
18/01:30am 27.5 29.3 19.6 62 5.3 SE 9 13 5 7 1008.6 1004.3 0.0
18/01:00am 28.4 29.9 18.8 56 6.3 WNW 9 19 5 10 1009.7 1005.4 0.0
18/12:30am 29.4 31.3 18.5 52 7.2 W 6 9 3 5 1009.1 1004.8 0.0
18/12:00am 29.3 31.5 18.4 51 7.2 WSW 4 6 2 3 1008.5 1004.2 0.0
 
Date/Time
CST
Temp
°C
App
Temp
°C
Dew
Point
Rel
Hum
%
Delta-T
°C
Wind Press
QNH
hPa
Press
MSL
hPa
Rain
since 9 am
mm
Dir
 
Spd
km/h
Gust
km/h
Spd
kts
Gust
kts
17/11:30pm 29.7 32.4 17.8 48 7.8 CALM 0 2 0 1 1008.6 1004.3 0.0
17/11:00pm 29.7 32.0 17.8 48 7.7 NNE 2 4 1 2 1008.4 1004.1 0.0
17/10:30pm 29.5 30.9 17.3 47 7.9 NNE 6 7 3 4 1008.4 1004.1 0.0
17/10:00pm 30.1 31.1 16.9 45 8.5 N 7 11 4 6 1008.2 1003.9 0.0
17/09:30pm 30.2 31.1 16.6 44 8.7 NNE 7 9 4 5 1007.9 1003.6 0.0
17/09:00pm 30.8 30.8 15.2 38 9.8 N 9 13 5 7 1007.7 1003.4 0.0
17/08:30pm 31.7 30.6 15.2 36 10.4 N 15 20 8 11 1007.6 1003.3 0.0
17/08:00pm 32.1 30.3 15.6 37 10.5 N 19 28 10 15 1007.6 1003.3 0.0
17/07:30pm 32.9 30.8 16.3 37 10.7 NNW 22 32 12 17 1007.5 1003.2 0.0
17/07:20pm 33.4 33.6 15.8 34 11.3 NNW 9 32 5 17 1007.5 1003.2 0.0
17/07:00pm 34.6 34.9 14.5 30 12.7 NNW 6 7 3 4 1007.3 1002.9 0.0
17/06:30pm 35.3 34.5 14.0 28 13.4 NNW 11 17 6 9 1007.0 1002.6 0.0
17/06:00pm 35.4 35.2 13.5 26 13.7 NNW 7 13 4 7 1006.6 1002.3 0.0
17/05:30pm 35.7 35.4 13.2 26 14.0 NNW 7 13 4 7 1006.5 1002.2 0.0
17/05:00pm 35.5 34.2 13.6 26 13.7 N 13 19 7 10 1006.4 1002.1 0.0
17/04:30pm 36.4 34.4 13.8 26 14.2 N 17 24 9 13 1006.3 1002.0 0.0
17/04:00pm 37.2 36.9 13.3 24 15.0 NNE 7 19 4 10 1006.3 1002.0 0.0
17/03:30pm 35.7 32.7 13.8 27 13.8 NE 22 30 12 16 1006.6 1002.3 0.0
17/03:00pm 34.0 30.7 15.0 32 12.1 NNE 26 35 14 19 1006.9 1002.5 0.0
17/02:30pm 35.1 32.7 14.4 29 13.1 NNE 20 30 11 16 1008.0 1003.7 0.0
17/02:00pm 35.4 35.2 14.6 28 13.2 NNE 9 17 5 9 1008.6 1004.3 0.0
17/01:30pm 34.9 33.2 14.7 29 12.8 NNW 17 24 9 13 1009.1 1004.8 0.0
17/01:00pm 35.3 33.7 14.0 28 13.4 N 15 24 8 13 1009.3 1005.0 0.0
17/12:30pm 36.7 34.2 13.5 25 14.6 NNE 19 35 10 19 1009.7 1005.4 0.0
17/12:00pm 36.2 36.6 14.8 28 13.6 SE 6 11 3 6 1010.2 1005.9 0.0
17/11:30am 35.1 35.4 14.9 29 12.9 WNW 7 11 4 6 1010.7 1006.4 0.0
17/11:00am 34.0 34.3 14.5 31 12.3 SE 6 9 3 5 1010.9 1006.6 0.0
17/10:30am 33.6 34.1 15.1 33 11.7 S 6 11 3 6 1011.2 1006.9 0.0
17/10:00am 32.2 32.2 14.3 33 11.2 SSE 7 15 4 8 1011.4 1007.1 0.0
17/09:30am 31.7 31.5 14.8 36 10.6 SSE 9 15 5 8 1011.3 1007.0 0.0
17/09:00am 31.0 30.4 14.6 37 10.2 S 11 17 6 9 1011.1 1006.8 0.0
17/08:30am 30.8 30.6 14.8 37 10.0 SSE 9 15 5 8 1010.7 1006.4 0.0
17/08:00am 30.5 29.3 15.0 39 9.7 SE 15 20 8 11 1010.2 1005.9 0.0
17/07:30am 30.4 29.8 15.7 41 9.3 SE 13 17 7 9 1009.9 1005.6 0.0
17/07:00am 29.5 28.9 15.6 43 8.8 SE 13 17 7 9 1009.8 1005.5 0.0
17/06:30am 28.7 29.3 15.9 45 8.1 SSE 7 11 4 6 1010.2 1005.9 0.0
17/06:00am 28.8 29.1 16.0 45 8.1 SSE 9 13 5 7 1009.8 1005.5 0.0
17/05:30am 28.3 29.2 16.2 47 7.7 SSE 6 7 3 4 1009.4 1005.1 0.0
17/05:00am 28.3 29.1 15.9 47 7.8 E 6 7 3 4 1009.1 1004.8 0.0
17/04:30am 28.8 29.2 15.3 43 8.5 SE 7 9 4 5 1008.8 1004.4 0.0
17/04:00am 29.0 30.1 15.5 44 8.5 NNE 4 11 2 6 1008.5 1004.2 0.0
17/03:30am 29.0 27.9 15.2 43 8.7 SE 15 20 8 11 1007.2 1002.8 0.0
17/03:00am 29.4 28.2 15.1 41 9.0 SSE 15 20 8 11 1007.2 1002.8 0.0
17/02:30am 29.7 28.4 14.7 40 9.4 SE 15 20 8 11 1007.4 1003.1 0.0
17/02:00am 30.2 28.0 14.3 38 9.9 S 19 24 10 13 1007.2 1002.8 0.0
17/01:30am 30.4 28.0 14.5 38 9.9 S 20 33 11 18 1007.5 1003.2 0.0
17/01:00am 31.4 28.3 14.5 35 10.5 S 24 43 13 23 1007.8 1003.5 0.0
17/12:55am 31.4 29.6 14.5 35 10.5 SSW 17 43 9 23 1007.7 1003.4 0.0
17/12:30am 30.8 30.9 15.6 39 9.6 SW 9 9 5 5 1007.8 1003.5 0.0
17/12:00am 31.4 30.7 15.4 38 10.1 SW 13 19 7 10 1008.1 1003.8 0.0
 
Date/Time
CST
Temp
°C
App
Temp
°C
Dew
Point
Rel
Hum
%
Delta-T
°C
Wind Press
QNH
hPa
Press
MSL
hPa
Rain
since 9 am
mm
Dir
 
Spd
km/h
Gust
km/h
Spd
kts
Gust
kts
16/11:30pm 30.9 32.8 17.6 45 8.7 NW 4 4 2 2 1007.9 1003.6 0.0
16/11:00pm 31.1 32.5 16.3 41 9.5 NNW 4 6 2 3 1007.9 1003.6 0.0
16/10:30pm 31.3 32.3 15.3 38 10.1 NNW 4 4 2 2 1007.9 1003.6 0.0
16/10:00pm 31.5 32.9 16.3 40 9.7 NNW 4 6 2 3 1007.7 1003.4 0.0
16/09:30pm 32.2 33.1 15.2 35 10.8 N 4 6 2 3 1007.7 1003.4 0.0
16/09:00pm 32.8 32.5 14.4 33 11.5 NNE 9 9 5 5 1007.4 1003.1 0.0
16/08:30pm 32.9 33.3 15.4 35 11.1 N 7 7 4 4 1007.3 1002.9 0.0
16/08:00pm 33.7 34.1 14.7 32 12.0 N 6 6 3 3 1007.1 1002.7 0.0
16/07:30pm 34.5 34.6 13.9 29 12.9 N 6 6 3 3 1006.7 1002.4 0.0
16/07:00pm 36.2 36.4 13.0 24 14.4 N 4 7 2 4 1006.6 1002.3 0.0
16/06:30pm 37.1 36.7 11.1 21 15.8 N 4 6 2 3 1006.5 1002.2 0.0
16/06:00pm 37.8 36.8 11.0 20 16.3 NW 7 11 4 6 1006.4 1002.1 0.0
16/05:30pm 37.9 35.2 10.3 19 16.6 WNW 15 24 8 13 1006.6 1002.3 0.0
16/05:00pm 38.6 36.8 10.9 19 16.8 NNW 11 20 6 11 1006.6 1002.3 0.0
16/04:30pm 38.6 37.0 11.6 20 16.6 NNW 11 17 6 9 1006.7 1002.4 0.0
16/04:00pm 39.3 38.3 12.2 20 16.8 NW 9 20 5 11 1007.2 1002.8 0.0
16/03:30pm 37.9 36.6 12.5 22 15.8 NNW 11 17 6 9 1007.6 1003.3 0.0
16/03:00pm 38.1 36.9 12.7 22 15.8 SW 11 20 6 11 1008.0 1003.7 0.0
16/02:30pm 37.8 37.2 12.4 22 15.8 SSW 7 15 4 8 1008.4 1004.1 0.0
16/02:00pm 37.5 36.1 12.2 22 15.6 W 11 24 6 13 1008.8 1004.4 0.0
16/01:30pm 37.9 37.0 12.5 22 15.8 SW 9 17 5 9 1009.1 1004.8 0.0
16/01:00pm 37.3 35.1 13.3 23 15.0 WSW 17 24 9 13 1009.7 1005.4 0.0
16/12:30pm 36.8 36.2 13.5 24 14.6 S 9 22 5 12 1010.1 1005.8 0.0
16/12:00pm 36.8 36.8 14.1 25 14.4 S 7 13 4 7 1010.7 1006.4 0.0
16/11:30am 35.7 35.2 13.8 27 13.7 SSE 9 17 5 9 1011.2 1006.9 0.0
16/11:00am 35.3 34.5 15.1 30 12.9 S 13 22 7 12 1011.7 1007.4 0.0
16/10:30am 34.5 33.6 15.9 33 12.0 S 15 24 8 13 1011.9 1007.6 0.0
16/10:00am 33.8 33.0 16.2 35 11.3 S 15 24 8 13 1012.0 1007.7 0.0
16/09:30am 33.0 32.1 16.8 38 10.5 SSW 17 24 9 13 1012.1 1007.8 0.0
16/09:00am 31.3 31.0 16.5 41 9.5 S 13 22 7 12 1012.2 1008.0 0.0
16/08:30am 30.4 29.7 16.4 43 9.0 S 15 24 8 13 1012.2 1008.0 0.0
16/08:00am 29.4 27.9 16.2 44 8.4 S 19 28 10 15 1012.1 1007.8 0.0

Other Formats:

Comma delimited format used in spreadsheet applications
http://www.bom.gov.au/fwo/IDD60801/IDD60801.94328.axf

JavaScript Object Notation format (JSON) in row-major order
http://www.bom.gov.au/fwo/IDD60801/IDD60801.94328.json